createdAt,value
2022-12-31T00:02:11.054Z,99691.56
2022-12-31T00:05:14.764Z,99696.06
2022-12-31T00:08:17.604Z,99705.69
2022-12-31T00:11:21.024Z,99713.00
2022-12-31T00:14:25.287Z,99716.97
2022-12-31T00:17:28.048Z,99719.91
2022-12-31T00:20:30.843Z,99716.88
2022-12-31T00:23:33.652Z,99726.56
2022-12-31T00:26:36.724Z,99725.31
2022-12-31T00:29:40.860Z,99723.63
2022-12-31T00:32:43.635Z,99719.88
2022-12-31T00:35:46.463Z,99721.03
2022-12-31T00:38:50.195Z,99714.81
2022-12-31T00:41:52.886Z,99711.56
2022-12-31T00:44:57.060Z,99718.06
2022-12-31T00:47:59.789Z,99713.84
2022-12-31T00:51:02.751Z,99712.84
2022-12-31T00:54:05.512Z,99709.06
2022-12-31T00:57:08.318Z,99714.41
2022-12-31T01:00:13.372Z,99701.38
2022-12-31T01:03:16.132Z,99701.66
2022-12-31T01:06:19.316Z,99707.28
2022-12-31T01:09:22.275Z,99696.75
2022-12-31T01:12:25.642Z,99685.53
2022-12-31T01:15:29.820Z,99679.16
2022-12-31T01:18:32.616Z,99678.97
2022-12-31T01:21:35.735Z,99691.44
2022-12-31T01:24:38.473Z,99681.38
2022-12-31T01:27:41.215Z,99694.56
2022-12-31T01:30:45.316Z,99707.06
2022-12-31T01:33:49.286Z,99710.00
2022-12-31T01:36:52.095Z,99731.38
2022-12-31T01:39:54.848Z,99728.00
2022-12-31T01:42:58.121Z,99731.94
2022-12-31T01:46:02.252Z,99733.50
2022-12-31T01:49:09.781Z,99755.00
2022-12-31T01:52:14.326Z,99762.03
2022-12-31T01:55:20.084Z,99756.94
2022-12-31T01:58:24.715Z,99747.41
2022-12-31T02:01:30.441Z,99769.31
2022-12-31T02:04:33.404Z,99763.69
2022-12-31T02:07:36.138Z,99752.31
2022-12-31T02:10:39.020Z,99758.34
2022-12-31T02:13:41.830Z,99751.50
2022-12-31T02:16:49.633Z,99763.16
2022-12-31T02:20:16.238Z,99756.97
2022-12-31T02:23:39.792Z,99759.63
2022-12-31T02:26:56.968Z,99765.41
2022-12-31T02:30:06.051Z,99761.75
2022-12-31T02:33:13.539Z,99772.72
2022-12-31T02:36:19.459Z,99766.94
2022-12-31T02:39:22.706Z,99772.13
2022-12-31T02:42:25.487Z,99770.44
2022-12-31T02:45:33.274Z,99765.25
2022-12-31T02:48:41.878Z,99769.63
2022-12-31T02:51:51.437Z,99776.63
2022-12-31T02:55:00.058Z,99779.44
2022-12-31T02:58:08.866Z,99783.09
2022-12-31T03:01:32.655Z,99799.13
2022-12-31T03:04:36.359Z,99803.19
2022-12-31T03:07:40.717Z,99802.47
2022-12-31T03:10:43.390Z,99806.25
2022-12-31T03:13:45.121Z,99805.53
2022-12-31T03:16:49.907Z,99820.69
2022-12-31T03:20:10.258Z,99809.34
2022-12-31T03:23:14.475Z,99811.41
2022-12-31T03:26:16.259Z,99820.53
2022-12-31T03:29:19.003Z,99830.78
2022-12-31T03:32:23.119Z,99823.47
2022-12-31T03:35:28.033Z,99827.56
2022-12-31T03:38:30.791Z,99821.81
2022-12-31T03:41:34.576Z,99828.13
2022-12-31T03:44:37.286Z,99838.22
2022-12-31T03:47:41.612Z,99835.22
2022-12-31T03:50:44.370Z,99845.50
2022-12-31T03:53:47.174Z,99842.25
2022-12-31T03:56:52.068Z,99843.56
2022-12-31T03:59:56.921Z,99841.56
2022-12-31T04:03:01.128Z,99847.47
2022-12-31T04:06:03.898Z,99845.09
2022-12-31T04:09:06.888Z,99853.38
2022-12-31T04:12:09.776Z,99856.03
2022-12-31T04:15:16.064Z,99855.50
2022-12-31T04:18:20.251Z,99859.53
2022-12-31T04:21:23.047Z,99860.22
2022-12-31T04:24:25.789Z,99861.09
2022-12-31T04:27:28.500Z,99869.81
2022-12-31T04:30:31.339Z,99873.84
2022-12-31T04:33:35.547Z,99877.41
2022-12-31T04:36:38.335Z,99876.06
2022-12-31T04:39:41.189Z,99887.63
2022-12-31T04:42:43.893Z,99886.81
2022-12-31T04:45:49.493Z,99887.50
2022-12-31T04:48:53.750Z,99895.91
2022-12-31T04:51:56.485Z,99892.41
2022-12-31T04:54:59.285Z,99907.47
2022-12-31T04:58:02.158Z,99907.47
2022-12-31T05:01:05.065Z,99910.97
2022-12-31T05:04:09.303Z,99916.03
2022-12-31T05:07:12.105Z,99928.25
2022-12-31T05:10:14.955Z,99920.56
2022-12-31T05:13:17.699Z,99932.34
2022-12-31T05:16:20.498Z,99928.16
2022-12-31T05:19:24.704Z,99944.34
2022-12-31T05:22:29.974Z,99963.19
2022-12-31T05:25:32.902Z,99962.34
2022-12-31T05:28:35.605Z,99969.13
2022-12-31T05:31:38.313Z,99968.53
2022-12-31T05:34:42.543Z,99970.38
2022-12-31T05:37:45.421Z,99977.84
2022-12-31T05:40:48.119Z,99989.06
2022-12-31T05:43:51.462Z,99997.41
2022-12-31T05:46:54.229Z,100002.75
2022-12-31T05:49:58.351Z,100001.59
2022-12-31T05:53:01.136Z,100012.59
2022-12-31T05:56:03.889Z,100017.53
2022-12-31T05:59:06.679Z,100021.88
2022-12-31T06:02:09.522Z,100025.13
2022-12-31T06:05:13.951Z,100027.94
2022-12-31T06:08:16.739Z,100027.66
2022-12-31T06:11:19.459Z,100029.91
2022-12-31T06:14:22.270Z,100035.66
2022-12-31T06:17:25.055Z,100040.31
2022-12-31T06:20:29.171Z,100048.34
2022-12-31T06:23:32.116Z,100043.97
2022-12-31T06:26:34.810Z,100056.06
2022-12-31T06:29:37.558Z,100056.34
2022-12-31T06:32:40.796Z,100058.75
2022-12-31T06:35:44.987Z,100055.50
2022-12-31T06:38:47.760Z,100070.13
2022-12-31T06:41:50.500Z,100068.31
2022-12-31T06:44:53.327Z,100067.19
2022-12-31T06:47:56.123Z,100069.28
2022-12-31T06:51:04.104Z,100084.78
2022-12-31T06:54:07.040Z,100091.13
2022-12-31T06:57:09.888Z,100088.41
2022-12-31T07:00:13.400Z,100087.88
2022-12-31T07:03:20.917Z,100081.84
2022-12-31T07:06:30.629Z,100092.09
2022-12-31T07:09:38.824Z,100109.13
2022-12-31T07:12:50.719Z,100098.69
2022-12-31T07:15:59.780Z,100107.13
2022-12-31T07:19:09.573Z,100109.91
2022-12-31T07:22:15.739Z,100110.47
2022-12-31T07:25:19.360Z,100104.72
2022-12-31T07:28:29.322Z,100106.63
2022-12-31T07:31:39.419Z,100117.91
2022-12-31T07:34:45.280Z,100114.50
2022-12-31T07:37:53.286Z,100116.47
2022-12-31T07:41:07.348Z,100124.31
2022-12-31T07:44:16.080Z,100120.91
2022-12-31T07:47:23.518Z,100123.88
2022-12-31T07:50:26.716Z,100123.19
2022-12-31T07:53:31.460Z,100133.00
2022-12-31T07:56:34.294Z,100132.72
2022-12-31T07:59:45.663Z,100134.38
2022-12-31T08:03:06.098Z,100136.63
2022-12-31T08:06:12.047Z,100147.56
2022-12-31T08:09:25.451Z,100138.81
2022-12-31T08:12:31.235Z,100128.72
2022-12-31T08:15:34.222Z,100126.28
2022-12-31T08:18:37.218Z,100122.94
2022-12-31T08:21:44.655Z,100131.91
2022-12-31T08:24:55.693Z,100130.63
2022-12-31T08:28:04.320Z,100133.53
2022-12-31T08:31:10.704Z,100124.97
2022-12-31T08:34:18.695Z,100137.59
2022-12-31T08:37:26.498Z,100127.78
2022-12-31T08:40:35.842Z,100132.28
2022-12-31T08:43:47.209Z,100128.44
2022-12-31T08:46:55.338Z,100134.63
2022-12-31T08:49:58.372Z,100136.47
2022-12-31T08:53:04.324Z,100132.84
2022-12-31T08:56:11.334Z,100126.69
2022-12-31T08:59:20.197Z,100121.66
2022-12-31T09:02:34.638Z,100121.84
2022-12-31T09:05:45.027Z,100113.28
2022-12-31T09:08:52.276Z,100118.38
2022-12-31T09:12:01.503Z,100126.53
2022-12-31T09:15:07.654Z,100125.72
2022-12-31T09:18:10.884Z,100146.25
2022-12-31T09:21:14.268Z,100144.03
2022-12-31T09:24:17.537Z,100136.00
2022-12-31T09:27:27.957Z,100128.69
2022-12-31T09:30:36.551Z,100132.66
2022-12-31T09:33:43.401Z,100127.94
2022-12-31T09:36:47.967Z,100120.59
2022-12-31T09:39:51.167Z,100123.00
2022-12-31T09:43:08.691Z,100122.16
2022-12-31T09:46:30.336Z,100118.50
2022-12-31T09:49:47.723Z,100118.50
2022-12-31T09:53:02.128Z,100114.03
2022-12-31T09:56:09.624Z,100119.91
2022-12-31T09:59:14.733Z,100114.56
2022-12-31T10:02:22.622Z,100124.28
2022-12-31T10:05:36.742Z,100125.56
2022-12-31T10:08:48.944Z,100116.94
2022-12-31T10:12:06.267Z,100121.91
2022-12-31T10:15:27.918Z,100114.31
2022-12-31T10:18:39.360Z,100125.69
2022-12-31T10:21:50.819Z,100121.06
2022-12-31T10:25:05.530Z,100124.41
2022-12-31T10:28:15.194Z,100121.91
2022-12-31T17:18:45.305Z,100245.09
2022-12-31T17:21:48.728Z,100240.75
2022-12-31T17:24:52.705Z,100257.47
2022-12-31T17:27:57.882Z,100257.00
2022-12-31T17:31:01.849Z,100264.75
2022-12-31T17:34:20.700Z,100254.47
2022-12-31T17:37:24.938Z,100258.91
2022-12-31T17:40:53.187Z,100251.44
2022-12-31T17:43:56.922Z,100233.38
2022-12-31T17:46:59.870Z,100227.31
2022-12-31T17:50:09.925Z,100219.44
2022-12-31T17:53:13.813Z,100219.53
2022-12-31T17:56:18.612Z,100215.63
2022-12-31T17:59:23.328Z,100212.25
2022-12-31T18:02:26.175Z,100223.75
2022-12-31T18:05:30.422Z,100229.31
2022-12-31T18:08:33.160Z,100227.63
2022-12-31T18:11:36.808Z,100222.06
2022-12-31T18:14:39.789Z,100230.06
2022-12-31T18:17:43.381Z,100224.31
2022-12-31T18:20:48.162Z,100230.84
2022-12-31T18:23:51.177Z,100232.53
2022-12-31T18:26:53.948Z,100227.66
2022-12-31T18:30:02.262Z,100225.47
2022-12-31T18:33:07.579Z,100215.38
2022-12-31T18:36:14.170Z,100208.22
2022-12-31T18:39:16.903Z,100210.38
2022-12-31T18:42:20.104Z,100199.72
2022-12-31T18:45:23.004Z,100195.56
2022-12-31T18:48:25.809Z,100201.41
2022-12-31T18:51:32.469Z,100192.13
2022-12-31T18:54:35.473Z,100188.59
2022-12-31T18:57:38.195Z,100190.09
2022-12-31T19:00:41.132Z,100204.38
2022-12-31T19:03:43.997Z,100203.53
2022-12-31T19:06:48.668Z,100204.91
2022-12-31T19:09:56.334Z,100203.09
2022-12-31T19:13:00.999Z,100203.59
2022-12-31T19:16:03.808Z,100209.91
2022-12-31T19:19:08.748Z,100188.69
2022-12-31T19:22:16.180Z,100191.75
2022-12-31T19:25:20.242Z,100184.84
2022-12-31T19:28:23.826Z,100179.91
2022-12-31T19:31:26.644Z,100167.66
2022-12-31T19:34:29.534Z,100158.69
2022-12-31T19:37:33.608Z,100150.94
2022-12-31T19:40:36.427Z,100152.63
2022-12-31T19:43:39.148Z,100153.47
2022-12-31T19:46:41.912Z,100148.66
2022-12-31T19:49:44.711Z,100159.31
2022-12-31T19:52:49.881Z,100154.00
2022-12-31T19:55:53.109Z,100150.94
2022-12-31T19:58:55.875Z,100154.09
2022-12-31T20:01:58.776Z,100158.66
2022-12-31T20:05:01.758Z,100154.63
2022-12-31T20:08:06.107Z,100156.00
2022-12-31T20:11:09.258Z,100153.31
2022-12-31T20:14:12.138Z,100158.84
2022-12-31T20:17:15.016Z,100159.59
2022-12-31T20:20:17.861Z,100155.66
2022-12-31T20:23:22.007Z,100153.72
2022-12-31T20:26:25.668Z,100149.94
2022-12-31T20:29:28.467Z,100153.22
2022-12-31T20:32:31.951Z,100149.19
2022-12-31T20:35:34.702Z,100154.53
2022-12-31T20:38:38.999Z,100154.38
2022-12-31T20:41:41.755Z,100153.88
2022-12-31T20:44:44.550Z,100158.97
2022-12-31T20:47:47.313Z,100146.03
2022-12-31T20:50:55.168Z,100139.16
2022-12-31T20:54:00.499Z,100127.50
2022-12-31T20:57:03.385Z,100124.44
2022-12-31T21:00:06.649Z,100120.97
2022-12-31T21:03:30.082Z,100096.13
2022-12-31T21:06:32.386Z,100104.69
2022-12-31T21:09:36.487Z,100110.91
2022-12-31T21:12:45.249Z,100113.03
2022-12-31T21:15:48.718Z,100123.59
2022-12-31T21:18:51.651Z,100129.22
2022-12-31T21:21:54.399Z,100117.28
2022-12-31T21:25:01.044Z,100121.19
2022-12-31T21:28:03.776Z,100119.22
2022-12-31T21:31:07.561Z,100108.28
2022-12-31T21:34:10.584Z,100104.88
2022-12-31T21:37:13.262Z,100098.59
2022-12-31T21:40:17.534Z,100082.97
2022-12-31T21:43:21.741Z,100095.34
2022-12-31T21:46:25.989Z,100107.56
2022-12-31T21:49:28.689Z,100121.19
2022-12-31T21:52:33.929Z,100118.97
2022-12-31T21:55:57.497Z,100123.47
2022-12-31T21:59:17.804Z,100105.75
2022-12-31T22:02:38.326Z,100100.13
2022-12-31T22:05:46.107Z,100103.78
2022-12-31T22:08:50.247Z,100100.00
2022-12-31T22:11:54.328Z,100105.94
2022-12-31T22:15:14.431Z,100095.09
2022-12-31T22:18:19.250Z,100086.94
2022-12-31T22:21:23.207Z,100075.00
2022-12-31T22:24:26.784Z,100081.19
2022-12-31T22:27:34.147Z,100068.38
2022-12-31T22:30:37.634Z,100058.69
2022-12-31T22:33:40.457Z,100042.13
2022-12-31T22:36:43.231Z,100035.63
2022-12-31T22:39:45.991Z,100038.03
2022-12-31T22:42:50.149Z,100030.91
2022-12-31T22:45:52.889Z,100018.06
2022-12-31T22:48:58.243Z,100010.22
2022-12-31T22:52:05.626Z,99997.59
2022-12-31T22:55:11.567Z,99998.13
2022-12-31T22:58:15.820Z,99998.25
2022-12-31T23:01:19.516Z,99998.25
2022-12-31T23:04:22.427Z,99993.63
2022-12-31T23:07:25.215Z,99988.84
2022-12-31T23:10:45.326Z,99994.31
2022-12-31T23:14:06.915Z,99980.94
2022-12-31T23:17:32.391Z,99975.75
2022-12-31T23:20:52.678Z,99973.66
2022-12-31T23:23:55.458Z,99975.75
2022-12-31T23:26:58.581Z,99983.50
2022-12-31T23:30:02.757Z,99990.53
2022-12-31T23:33:05.575Z,99989.13
2022-12-31T23:36:08.757Z,99989.13
2022-12-31T23:39:12.736Z,99991.66
2022-12-31T23:42:15.435Z,100000.50
2022-12-31T23:45:19.663Z,99986.72
2022-12-31T23:48:22.420Z,100001.06
2022-12-31T23:51:25.138Z,99994.47
2022-12-31T23:54:27.979Z,99981.66
2022-12-31T23:57:30.679Z,99972.69
